Time;durP1;ratioP1;P1;durP2;ratioP2;P2;SDS_P1;SDS_P2;PMS_P1;PMS_P2;Temp;Humidity;BMP_temperature;BMP_pressure;BME280_temperature;BME280_humidity;BME280_pressure;Samples;Min_cycle;Max_cycle;Signal;HPM_P1;HPM_P2
2022/10/21 03:38:35;;;;;;;;;;;;;;;5.94;100.00;98954.22;5004607;28;19936;-83
2022/10/21 03:41:00;;;;;;;;;;;;;;;5.96;100.00;98949.78;5004536;28;19921;-84
2022/10/21 03:43:26;;;;;;;;;;;;;;;5.98;100.00;98952.34;5005144;28;19944;-88
2022/10/21 03:45:51;;;;;;;;;;;;;;;5.96;100.00;98949.78;5005820;28;19929;-82
2022/10/21 03:48:16;;;;;;;;;;;;;;;5.99;100.00;98948.81;5005461;28;19925;-82
2022/10/21 03:50:41;;;;;;;;;;;;;;;5.97;100.00;98953.28;5003496;28;21041;-83
2022/10/21 03:53:07;;;;;;;;;;;;;;;5.96;100.00;98947.16;4995719;28;19918;-83
2022/10/21 03:55:32;;;;;;;;;;;;;;;5.94;100.00;98946.31;5005397;28;19967;-83
2022/10/21 03:57:57;;;;;;;;;;;;;;;5.97;100.00;98951.50;5005206;28;19918;-84
2022/10/21 04:00:23;;;;;;;;;;;;;;;5.91;100.00;98949.06;5004787;28;19964;-84
2022/10/21 04:02:48;;;;;;;;;;;;;;;6.00;100.00;98950.53;5005020;28;20379;-83
2022/10/21 04:05:14;;;;;;;;;;;;;;;5.99;100.00;98949.66;5004025;28;19932;-84
2022/10/21 04:07:39;;;;;;;;;;;;;;;6.02;100.00;98953.13;5004700;28;19918;-83
2022/10/21 04:10:05;;;;;;;;;;;;;;;6.02;100.00;98947.84;4987019;28;20441;-83
2022/10/21 04:12:30;;;;;;;;;;;;;;;5.97;100.00;98951.50;4987293;28;19924;-83
2022/10/21 04:14:56;;;;;;;;;;;;;;;6.00;100.00;98951.38;5004662;28;19918;-84
2022/10/21 04:17:21;;;;;;;;;;;;;;;6.01;100.00;98952.22;5003999;28;19918;-83
2022/10/21 04:19:46;;;;;;;;;;;;;;;6.00;100.00;98946.13;5004405;28;19957;-83
2022/10/21 04:22:12;;;;;;;;;;;;;;;6.00;100.00;98948.75;4986152;28;19940;-83
2022/10/21 04:24:37;;;;;;;;;;;;;;;5.98;100.00;98953.22;5004802;28;19917;-83
2022/10/21 04:27:02;;;;;;;;;;;;;;;6.02;100.00;98953.13;5004490;28;19917;-83
2022/10/21 04:29:28;;;;;;;;;;;;;;;6.07;100.00;98949.38;4986715;28;19922;-83
2022/10/21 04:31:53;;;;;;;;;;;;;;;6.03;100.00;98950.44;5004775;28;19918;-83
2022/10/21 04:34:18;;;;;;;;;;;;;;;6.00;100.00;98940.88;5004493;28;20001;-83
2022/10/21 04:36:43;;;;;;;;;;;;;;;6.02;100.00;98945.22;5002379;28;19929;-83
2022/10/21 04:39:09;;;;;;;;;;;;;;;5.99;100.00;98939.16;5004290;28;19924;-84
2022/10/21 04:41:34;;;;;;;;;;;;;;;6.00;100.00;98935.59;5004399;28;19921;-83
2022/10/21 04:44:00;;;;;;;;;;;;;;;5.99;100.00;98938.28;5004421;28;19984;-83
2022/10/21 04:46:25;;;;;;;;;;;;;;;6.00;100.00;98930.34;5003125;28;19967;-86
2022/10/21 04:48:51;;;;;;;;;;;;;;;6.01;100.00;98931.19;5003801;28;19924;-86
2022/10/21 04:51:16;;;;;;;;;;;;;;;5.98;100.00;98931.31;4985346;28;19926;-86
2022/10/21 07:39:07;;;;;;;;;;;;;;;5.97;100.00;98993.56;5812983;23;19964;-88
2022/10/21 07:41:34;;;;;;;;;;;;;;;5.97;100.00;98998.84;5029873;28;19921;-88
2022/10/21 07:44:00;;;;;;;;;;;;;;;5.98;100.00;98999.69;5024676;28;19925;-88
2022/10/21 07:46:26;;;;;;;;;;;;;;;5.99;100.00;99007.53;5041417;28;19928;-88
2022/10/21 07:48:51;;;;;;;;;;;;;;;6.02;100.00;99005.72;5041203;28;19944;-91
2022/10/21 07:51:18;;;;;;;;;;;;;;;6.07;100.00;99006.41;5042594;28;19924;-90
2022/10/21 07:53:44;;;;;;;;;;;;;;;5.99;100.00;99009.31;5043635;28;19921;-88
2022/10/21 07:56:14;;;;;;;;;;;;;;;6.01;100.00;99004.84;5026433;28;19916;-91
2022/10/21 07:58:40;;;;;;;;;;;;;;;6.00;100.00;99017.13;5026789;28;19928;-92
2022/10/21 08:01:06;;;;;;;;;;;;;;;6.03;100.00;99015.28;5026885;28;19960;-89
2022/10/21 08:03:31;;;;;;;;;;;;;;;6.04;100.00;99014.41;5044417;28;20021;-88
2022/10/21 08:05:57;;;;;;;;;;;;;;;6.06;100.00;99018.66;5044685;28;19917;-88
2022/10/21 08:08:23;;;;;;;;;;;;;;;6.05;100.00;99026.59;5025334;28;19927;-90
2022/10/21 08:10:49;;;;;;;;;;;;;;;6.03;100.00;99025.81;5044386;28;19921;-88
2022/10/21 08:13:14;;;;;;;;;;;;;;;6.04;100.00;99032.81;5044263;28;19921;-88
2022/10/21 08:15:43;;;;;;;;;;;;;;;6.04;100.00;99028.38;5045060;28;19917;-88
2022/10/21 08:18:09;;;;;;;;;;;;;;;6.03;100.00;99033.72;5043284;28;19971;-91
2022/10/21 08:20:37;;;;;;;;;;;;;;;6.06;100.00;99030.97;5044042;28;19921;-89
2022/10/21 08:23:02;;;;;;;;;;;;;;;6.04;100.00;99041.53;5043494;28;19924;-87
2022/10/21 08:25:28;;;;;;;;;;;;;;;6.02;100.00;99037.28;5045601;28;19917;-91
2022/10/21 08:27:54;;;;;;;;;;;;;;;5.99;100.00;99044.34;5044476;28;19975;-89
2022/10/21 08:30:19;;;;;;;;;;;;;;;6.05;100.00;99038.00;5026344;28;19917;-88
2022/10/21 08:32:44;;;;;;;;;;;;;;;6.00;100.00;99056.59;5044304;28;20433;-89
2022/10/21 08:35:10;;;;;;;;;;;;;;;5.99;100.00;99049.59;5026116;28;19978;-88
2022/10/21 08:37:35;;;;;;;;;;;;;;;5.99;100.00;99054.84;5025879;28;20368;-90
2022/10/21 08:40:00;;;;;;;;;;;;;;;5.98;100.00;99053.16;5042722;28;19967;-89
2022/10/21 08:42:25;;;;;;;;;;;;;;;6.00;100.00;99063.63;5043927;28;19925;-89
2022/10/21 08:45:01;;;;;;;;;;;;;;;5.98;100.00;99066.31;5026171;28;19917;-89
2022/10/21 08:47:40;;;;;;;;;;;;;;;5.99;100.00;99070.63;5041814;28;20321;-88
2022/10/21 08:50:09;;;;;;;;;;;;;;;6.00;100.00;99066.25;5044400;28;19925;-89
2022/10/21 08:52:40;;;;;;;;;;;;;;;5.98;100.00;99068.94;5024829;28;19968;-89
2022/10/21 08:55:11;;;;;;;;;;;;;;;6.00;100.00;99069.72;5040664;28;19921;-90
2022/10/21 08:57:36;;;;;;;;;;;;;;;6.00;100.00;99080.25;5025955;28;19928;-88
2022/10/21 09:00:10;;;;;;;;;;;;;;;6.00;100.00;99082.88;5025968;28;20280;-89
2022/10/21 09:02:53;;;;;;;;;;;;;;;5.95;100.00;99079.53;5042319;28;19921;-89
2022/10/21 09:05:25;;;;;;;;;;;;;;;5.98;100.00;99078.56;5025320;28;19965;-90
2022/10/21 09:08:02;;;;;;;;;;;;;;;6.04;100.00;99083.63;5025442;28;20011;-90
2022/10/21 09:10:50;;;;;;;;;;;;;;;6.05;100.00;99081.84;5025163;28;19918;-88
2022/10/21 09:13:15;;;;;;;;;;;;;;;6.05;100.00;99079.22;5014667;28;20012;-88
2022/10/21 09:15:41;;;;;;;;;;;;;;;6.02;100.00;99069.69;5025221;28;20019;-88
2022/10/21 09:18:23;;;;;;;;;;;;;;;6.04;100.00;99073.09;5025779;28;19960;-88
2022/10/21 09:21:10;;;;;;;;;;;;;;;6.06;100.00;99058.13;5024891;28;19979;-91
2022/10/21 09:23:52;;;;;;;;;;;;;;;6.10;100.00;99053.63;5022903;28;19926;-90
2022/10/21 09:26:26;;;;;;;;;;;;;;;6.10;100.00;99041.31;5043092;28;20533;-90
2022/10/21 09:28:51;;;;;;;;;;;;;;;6.16;100.00;99051.63;5041344;28;19927;-90
2022/10/21 09:31:18;;;;;;;;;;;;;;;6.10;100.00;99065.00;5025271;28;19917;-92
2022/10/21 09:33:45;;;;;;;;;;;;;;;6.04;100.00;99065.22;5042673;28;19969;-89
2022/10/21 09:36:12;;;;;;;;;;;;;;;6.09;100.00;99062.41;5042820;28;20372;-92
2022/10/21 09:38:44;;;;;;;;;;;;;;;6.08;100.00;99063.31;5033835;28;20000;-90
2022/10/21 09:41:14;;;;;;;;;;;;;;;6.10;100.00;99057.09;5040530;28;19931;-91
2022/10/21 09:43:39;;;;;;;;;;;;;;;6.10;100.00;99054.47;5042559;28;20345;-90
2022/10/21 09:46:05;;;;;;;;;;;;;;;6.06;100.00;99076.53;5025135;28;19924;-90
2022/10/21 09:48:48;;;;;;;;;;;;;;;6.02;100.00;99063.56;5043944;28;19968;-89
2022/10/21 09:51:20;;;;;;;;;;;;;;;6.08;100.00;99064.19;5041997;28;19963;-89
2022/10/21 09:53:57;;;;;;;;;;;;;;;6.04;100.00;99059.09;5023579;28;19921;-89
2022/10/21 09:56:24;;;;;;;;;;;;;;;6.07;100.00;99061.63;5042895;28;19917;-90
2022/10/21 09:59:02;;;;;;;;;;;;;;;6.08;100.00;99060.69;5031900;28;20388;-89
2022/10/21 10:01:35;;;;;;;;;;;;;;;6.03;100.00;99067.91;5041489;28;19923;-89
2022/10/21 10:04:08;;;;;;;;;;;;;;;6.04;100.00;99069.63;5032339;28;19928;-91
2022/10/21 10:06:41;;;;;;;;;;;;;;;6.01;100.00;99062.69;5023957;28;19921;-87
2022/10/21 10:09:09;;;;;;;;;;;;;;;6.04;100.00;99086.25;5023866;28;20004;-90
2022/10/21 10:11:46;;;;;;;;;;;;;;;6.02;100.00;99080.19;5042478;28;20355;-92
2022/10/21 10:14:29;;;;;;;;;;;;;;;6.04;100.00;99078.38;5023884;28;20295;-89
2022/10/21 10:16:55;;;;;;;;;;;;;;;6.05;100.00;99087.09;5025290;28;19920;-88
2022/10/21 10:19:26;;;;;;;;;;;;;;;6.10;100.00;99087.81;5043031;28;20326;-93
2022/10/21 10:22:10;;;;;;;;;;;;;;;6.08;100.00;99094.88;5041474;28;19924;-89
2022/10/21 10:24:36;;;;;;;;;;;;;;;6.05;100.00;99090.63;5022889;28;19921;-91
2022/10/21 10:30:12;;;;;;;;;;;;;;;6.09;100.00;99086.94;5033380;28;19917;-91
2022/10/21 10:32:37;;;;;;;;;;;;;;;6.06;100.00;99083.56;5032418;28;19917;-91
2022/10/21 10:35:06;;;;;;;;;;;;;;;6.09;100.00;99086.94;5024621;28;19917;-90
2022/10/21 10:37:33;;;;;;;;;;;;;;;6.15;100.00;99078.00;5023887;28;19917;-91
2022/10/21 10:39:59;;;;;;;;;;;;;;;6.12;100.00;99080.72;5039857;28;20134;-91
2022/10/21 10:42:36;;;;;;;;;;;;;;;6.12;100.00;99088.63;5024542;28;19920;-92
2022/10/21 10:45:04;;;;;;;;;;;;;;;6.17;100.00;99089.31;5035740;28;19917;-92
2022/10/21 10:47:40;;;;;;;;;;;;;;;6.16;100.00;99080.56;5024540;28;19917;-91
2022/10/21 10:50:26;;;;;;;;;;;;;;;6.20;100.00;99073.41;5041308;28;19921;-90
2022/10/21 10:53:11;;;;;;;;;;;;;;;6.21;100.00;99077.78;5023840;28;20006;-90
2022/10/21 10:55:41;;;;;;;;;;;;;;;6.24;100.00;99084.66;5042109;28;19924;-91
2022/10/21 10:58:07;;;;;;;;;;;;;;;6.25;100.00;99082.00;5032123;28;20401;-91
2022/10/21 11:00:36;;;;;;;;;;;;;;;6.21;100.00;99088.28;5023705;28;19921;-88
2022/10/21 11:03:06;;;;;;;;;;;;;;;6.19;100.00;99098.03;5041192;28;19923;-92
2022/10/21 11:05:32;;;;;;;;;;;;;;;6.18;100.00;99093.66;5032066;28;19920;-91
2022/10/21 11:08:27;;;;;;;;;;;;;;;6.18;100.00;99093.66;5023199;28;19917;-88
2022/10/21 11:11:00;;;;;;;;;;;;;;;6.22;100.00;99097.88;5017170;28;20070;-91
2022/10/21 11:13:26;;;;;;;;;;;;;;;6.17;100.00;99099.81;5040264;28;20015;-92
2022/10/21 11:15:54;;;;;;;;;;;;;;;6.18;100.00;99085.78;5024089;28;19929;-88
2022/10/21 11:18:22;;;;;;;;;;;;;;;6.16;100.00;99092.88;5024057;28;20292;-88
2022/10/21 11:21:06;;;;;;;;;;;;;;;6.15;100.00;99075.34;5041669;28;19925;-90
2022/10/21 11:23:44;;;;;;;;;;;;;;;6.19;100.00;99076.97;5039174;28;19917;-91
2022/10/21 11:26:20;;;;;;;;;;;;;;;6.15;100.00;99072.72;5043643;28;19921;-88
2022/10/21 11:28:54;;;;;;;;;;;;;;;6.15;100.00;99070.94;5043888;28;19921;-87
2022/10/21 11:31:33;;;;;;;;;;;;;;;6.14;100.00;99071.00;5046055;28;19924;-91
2022/10/21 11:34:07;;;;;;;;;;;;;;;6.14;100.00;99084.16;5044311;28;20337;-92
2022/10/21 11:36:40;;;;;;;;;;;;;;;6.16;100.00;99074.47;5026953;28;20329;-92
2022/10/21 11:39:11;;;;;;;;;;;;;;;6.16;100.00;99075.31;5027149;28;20383;-92
2022/10/21 11:41:55;;;;;;;;;;;;;;;6.16;100.00;99077.94;5043424;28;19964;-93
2022/10/21 11:44:28;;;;;;;;;;;;;;;6.16;100.00;99080.56;5027366;28;20291;-90
2022/10/21 11:47:11;;;;;;;;;;;;;;;6.19;100.00;99071.72;5027300;28;19917;-91
2022/10/21 11:49:59;;;;;;;;;;;;;;;6.14;100.00;99073.63;5027710;28;19923;-90
2022/10/21 11:52:43;;;;;;;;;;;;;;;6.16;100.00;99077.09;5027199;28;19921;-92
2022/10/21 11:55:16;;;;;;;;;;;;;;;6.13;100.00;99079.81;5043370;28;19921;-90
2022/10/21 11:58:10;;;;;;;;;;;;;;;6.18;100.00;99073.47;5026927;28;20457;-92
2022/10/21 12:00:47;;;;;;;;;;;;;;;6.18;100.00;99076.09;5045195;28;20002;-88
2022/10/21 12:03:13;;;;;;;;;;;;;;;6.14;100.00;99084.16;5043394;28;20430;-91
2022/10/21 12:05:54;;;;;;;;;;;;;;;6.19;100.00;99076.97;5026644;28;19917;-91
2022/10/21 12:08:31;;;;;;;;;;;;;;;6.21;100.00;99069.88;5024676;28;19921;-90
2022/10/21 12:10:59;;;;;;;;;;;;;;;6.20;100.00;99073.41;5044450;28;19921;-90
2022/10/21 12:13:25;;;;;;;;;;;;;;;6.22;100.00;99065.47;5035101;28;19971;-93
2022/10/21 12:15:54;;;;;;;;;;;;;;;6.22;100.00;99057.56;5044143;28;19920;-87
2022/10/21 12:18:21;;;;;;;;;;;;;;;6.23;100.00;99052.25;5043597;28;20415;-92
2022/10/21 12:20:48;;;;;;;;;;;;;;;6.25;100.00;99046.94;5026532;28;19924;-87
2022/10/21 12:23:15;;;;;;;;;;;;;;;6.24;100.00;99038.19;5043364;28;19916;-92
2022/10/21 12:25:41;;;;;;;;;;;;;;;6.29;100.00;99040.66;5033968;28;19924;-90
2022/10/21 12:28:10;;;;;;;;;;;;;;;6.26;100.00;99040.78;5026208;28;19924;-91
2022/10/21 12:30:53;;;;;;;;;;;;;;;6.22;100.00;99045.25;5044051;28;19921;-88
2022/10/21 12:33:28;;;;;;;;;;;;;;;6.23;100.00;99040.88;5044575;28;19917;-90
2022/10/21 12:35:56;;;;;;;;;;;;;;;6.22;100.00;99047.06;5025934;28;19921;-91
2022/10/21 12:38:23;;;;;;;;;;;;;;;6.22;100.00;99055.78;5040140;28;20342;-89
2022/10/21 12:40:49;;;;;;;;;;;;;;;6.24;100.00;99063.63;5027345;28;19924;-89
2022/10/21 12:43:26;;;;;;;;;;;;;;;6.23;100.00;99052.25;5044387;28;20426;-90
2022/10/21 12:46:02;;;;;;;;;;;;;;;6.26;100.00;99051.28;5039292;28;20273;-88
2022/10/21 12:48:32;;;;;;;;;;;;;;;6.21;100.00;99051.47;5043825;28;20269;-90
2022/10/21 12:50:59;;;;;;;;;;;;;;;6.23;100.00;99040.88;5043059;28;19912;-91
2022/10/21 12:53:34;;;;;;;;;;;;;;;6.23;100.00;99046.16;5041789;28;20365;-91
2022/10/21 12:56:00;;;;;;;;;;;;;;;6.23;100.00;99036.47;5043481;28;19987;-88
2022/10/21 12:58:31;;;;;;;;;;;;;;;6.24;100.00;99032.94;5026244;28;20376;-91
2022/10/21 13:00:57;;;;;;;;;;;;;;;6.23;100.00;99031.22;5025461;28;19924;-89
2022/10/21 13:03:41;;;;;;;;;;;;;;;6.25;100.00;99029.38;5026798;28;19917;-88
2022/10/21 13:06:06;;;;;;;;;;;;;;;6.26;100.00;99030.25;5025335;28;20012;-91
2022/10/21 13:08:49;;;;;;;;;;;;;;;6.28;100.00;99037.16;5039472;28;20007;-88
2022/10/21 13:11:19;;;;;;;;;;;;;;;6.28;100.00;99034.53;5024522;28;19916;-88
2022/10/21 13:13:45;;;;;;;;;;;;;;;6.26;100.00;99028.47;5025784;28;19956;-87
2022/10/21 13:16:16;;;;;;;;;;;;;;;6.32;100.00;99027.38;5043191;28;19959;-88
2022/10/21 13:18:59;;;;;;;;;;;;;;;6.29;100.00;99023.09;5042637;28;20384;-87
2022/10/21 13:21:39;;;;;;;;;;;;;;;6.34;100.00;99007.97;5042243;28;19920;-89
2022/10/21 13:24:11;;;;;;;;;;;;;;;6.33;100.00;99008.03;5023719;28;20027;-87
2022/10/21 13:26:47;;;;;;;;;;;;;;;6.34;100.00;99002.72;5041176;28;19931;-91
2022/10/21 13:29:13;;;;;;;;;;;;;;;6.30;100.00;99016.03;5042743;28;19917;-87
2022/10/21 13:31:38;;;;;;;;;;;;;;;6.29;100.00;99014.34;5043003;28;19920;-87
2022/10/21 13:34:04;;;;;;;;;;;;;;;6.35;100.00;99009.72;5024814;28;20494;-87
2022/10/21 13:36:35;;;;;;;;;;;;;;;6.27;100.00;99006.50;5021763;28;19917;-87
2022/10/21 13:39:04;;;;;;;;;;;;;;;6.33;100.00;99010.66;5023459;28;19923;-90
2022/10/21 13:41:29;;;;;;;;;;;;;;;6.31;100.00;99016.00;5024868;28;20003;-88
2022/10/21 13:43:59;;;;;;;;;;;;;;;6.33;100.00;99015.94;5024784;28;20051;-90
2022/10/21 13:46:25;;;;;;;;;;;;;;;6.34;100.00;99020.28;5042372;28;19918;-89
2022/10/21 13:48:51;;;;;;;;;;;;;;;6.29;100.00;99009.94;5041843;28;19925;-87
2022/10/21 13:51:17;;;;;;;;;;;;;;;6.29;100.00;99009.94;5025417;28;20450;-90
2022/10/21 13:53:44;;;;;;;;;;;;;;;6.35;100.00;99007.06;5031725;28;19967;-92
2022/10/21 13:56:21;;;;;;;;;;;;;;;6.35;100.00;99009.72;5043155;28;19929;-91
2022/10/21 13:58:46;;;;;;;;;;;;;;;6.38;100.00;99013.13;5025047;28;19928;-91
2022/10/21 14:01:18;;;;;;;;;;;;;;;6.38;100.00;99013.13;5024591;28;19913;-90
2022/10/21 14:03:44;;;;;;;;;;;;;;;6.34;100.00;99013.25;5024644;28;19940;-91
2022/10/21 14:06:14;;;;;;;;;;;;;;;6.39;100.00;99014.84;5042996;28;20368;-91
2022/10/21 14:08:44;;;;;;;;;;;;;;;6.38;100.00;99007.88;5022670;28;19917;-91
2022/10/21 14:11:16;;;;;;;;;;;;;;;6.42;100.00;99014.75;5042283;28;19917;-88
2022/10/21 14:13:42;;;;;;;;;;;;;;;6.41;100.00;99021.75;5024536;28;20284;-87
2022/10/21 14:16:08;;;;;;;;;;;;;;;6.42;100.00;99017.38;5039527;28;19921;-88
2022/10/21 14:18:37;;;;;;;;;;;;;;;6.42;100.00;99014.75;5023666;28;20523;-88
2022/10/21 14:21:03;;;;;;;;;;;;;;;6.42;100.00;99010.31;5024147;28;19921;-88
2022/10/21 14:23:28;;;;;;;;;;;;;;;6.42;100.00;99009.47;5023071;28;19917;-89
2022/10/21 14:26:07;;;;;;;;;;;;;;;6.40;100.00;99001.63;5043121;28;19917;-95
2022/10/21 14:28:42;;;;;;;;;;;;;;;6.39;100.00;99007.81;5042714;28;19971;-91
2022/10/21 14:31:10;;;;;;;;;;;;;;;6.37;100.00;99014.91;5023773;28;20362;-88
2022/10/21 14:33:38;;;;;;;;;;;;;;;6.39;100.00;99002.53;5024257;28;19917;-90
2022/10/21 14:36:14;;;;;;;;;;;;;;;6.36;100.00;99011.41;5024106;28;19917;-94
2022/10/21 14:38:42;;;;;;;;;;;;;;;6.38;100.00;99008.72;5022623;28;19921;-92
2022/10/21 14:41:12;;;;;;;;;;;;;;;6.38;100.00;99003.44;5041635;28;19921;-91
2022/10/21 14:43:39;;;;;;;;;;;;;;;6.39;100.00;99004.34;5042633;28;19968;-91
2022/10/21 14:46:23;;;;;;;;;;;;;;;6.38;100.00;99015.75;5025277;28;19921;-90
2022/10/21 14:48:54;;;;;;;;;;;;;;;6.35;100.00;99009.72;5032086;28;19978;-92
2022/10/21 14:51:21;;;;;;;;;;;;;;;6.40;100.00;99016.56;5040756;28;19917;-92
2022/10/21 14:53:50;;;;;;;;;;;;;;;6.37;100.00;99017.53;5040679;28;19921;-92
2022/10/21 14:56:18;;;;;;;;;;;;;;;6.39;100.00;99015.69;5023216;28;19921;-91
2022/10/21 14:58:45;;;;;;;;;;;;;;;6.38;100.00;99024.50;5024552;28;20052;-92
2022/10/21 15:01:45;;;;;;;;;;;;;;;6.38;100.00;99021.88;5025975;28;19913;-88
2022/10/21 15:04:29;;;;;;;;;;;;;;;6.40;100.00;99021.81;5030099;28;19921;-91
2022/10/21 15:06:59;;;;;;;;;;;;;;;6.38;100.00;99015.75;5046528;28;19916;-91
2022/10/21 15:09:24;;;;;;;;;;;;;;;6.32;100.00;99030.03;5044303;28;19958;-91
2022/10/21 15:11:49;;;;;;;;;;;;;;;6.36;100.00;99027.19;5046471;28;19948;-92
2022/10/21 15:14:19;;;;;;;;;;;;;;;6.41;100.00;99015.66;5045781;28;19913;-90
2022/10/21 15:16:46;;;;;;;;;;;;;;;6.38;100.00;99018.41;5044101;28;19921;-89
2022/10/21 15:19:17;;;;;;;;;;;;;;;6.35;100.00;99017.59;5043781;28;19917;-89
2022/10/21 15:22:02;;;;;;;;;;;;;;;6.34;100.00;99015.88;5045905;28;20447;-94
2022/10/21 15:24:27;;;;;;;;;;;;;;;6.35;100.00;99017.59;5043813;28;19920;-92
2022/10/21 15:26:52;;;;;;;;;;;;;;;6.39;100.00;99025.38;5027693;28;19939;-91
2022/10/21 15:29:23;;;;;;;;;;;;;;;6.35;100.00;99020.22;5026185;28;19921;-91
2022/10/21 15:31:51;;;;;;;;;;;;;;;6.35;100.00;99022.88;5027660;28;19924;-90
2022/10/21 15:34:16;;;;;;;;;;;;;;;6.33;100.00;99032.59;5028358;28;19925;-90
2022/10/21 15:36:42;;;;;;;;;;;;;;;6.39;100.00;99034.13;5045645;28;19917;-92
2022/10/21 15:39:08;;;;;;;;;;;;;;;6.36;100.00;99032.44;5026951;28;19917;-92
2022/10/21 15:41:34;;;;;;;;;;;;;;;6.36;100.00;99027.19;5034307;28;19927;-92
2022/10/21 15:44:39;;;;;;;;;;;;;;;6.38;100.00;99024.50;5027579;28;19918;-91
2022/10/21 15:47:07;;;;;;;;;;;;;;;6.34;100.00;99025.56;5044197;28;19924;-92
2022/10/21 15:49:37;;;;;;;;;;;;;;;6.40;100.00;99025.31;5027559;28;20013;-93
2022/10/21 15:52:03;;;;;;;;;;;;;;;6.40;100.00;99027.06;5027160;28;19917;-92
2022/10/21 15:54:28;;;;;;;;;;;;;;;6.39;100.00;99017.50;5043289;28;19921;-88
2022/10/21 15:56:54;;;;;;;;;;;;;;;6.42;100.00;99009.47;5045237;28;19940;-88
2022/10/21 15:59:21;;;;;;;;;;;;;;;6.39;100.00;99014.84;5044525;28;20318;-92
2022/10/21 16:01:46;;;;;;;;;;;;;;;6.35;100.00;99017.59;5043976;28;19927;-88
2022/10/21 16:04:12;;;;;;;;;;;;;;;6.39;100.00;99009.59;5044427;28;19917;-89
2022/10/21 16:06:38;;;;;;;;;;;;;;;6.39;100.00;99010.44;5044306;28;20008;-87
2022/10/21 16:09:03;;;;;;;;;;;;;;;6.33;100.00;99000.16;5043247;28;20346;-90
2022/10/21 16:11:29;;;;;;;;;;;;;;;6.36;100.00;98997.41;5043216;28;19921;-88
2022/10/21 16:13:54;;;;;;;;;;;;;;;6.36;100.00;99010.56;5026619;28;19971;-92
2022/10/21 16:16:21;;;;;;;;;;;;;;;6.38;100.00;99015.75;5026055;28;19942;-90
2022/10/21 16:18:46;;;;;;;;;;;;;;;6.35;100.00;99012.34;5043390;28;20381;-91
2022/10/21 16:21:15;;;;;;;;;;;;;;;6.35;100.00;99014.97;5044210;28;19917;-89
2022/10/21 16:23:40;;;;;;;;;;;;;;;6.34;100.00;99021.13;5042412;28;19925;-91
2022/10/21 16:26:25;;;;;;;;;;;;;;;6.34;100.00;99015.88;5044649;28;20020;-92
2022/10/21 16:28:52;;;;;;;;;;;;;;;6.34;100.00;99022.91;5025867;28;19940;-91
2022/10/21 16:31:18;;;;;;;;;;;;;;;6.34;100.00;99021.13;5042938;28;19917;-92
2022/10/21 16:33:43;;;;;;;;;;;;;;;6.38;100.00;99024.50;5026377;28;19920;-87
2022/10/21 16:36:19;;;;;;;;;;;;;;;6.38;100.00;99029.75;5044171;28;19921;-87
2022/10/21 16:38:45;;;;;;;;;;;;;;;6.36;100.00;99037.72;5042888;28;20253;-92
2022/10/21 16:41:15;;;;;;;;;;;;;;;6.39;100.00;99033.28;5025481;28;19925;-90
2022/10/21 16:43:41;;;;;;;;;;;;;;;6.39;100.00;99033.28;5025727;28;19924;-87
2022/10/21 16:46:19;;;;;;;;;;;;;;;6.41;100.00;99036.69;5026164;28;19927;-88
2022/10/21 16:48:44;;;;;;;;;;;;;;;6.38;100.00;99034.19;5025782;28;19917;-92
2022/10/21 16:51:10;;;;;;;;;;;;;;;6.36;100.00;99035.09;5026517;28;19975;-89
2022/10/21 16:53:35;;;;;;;;;;;;;;;6.39;100.00;99030.66;5024737;28;19940;-89
2022/10/21 16:56:01;;;;;;;;;;;;;;;6.39;100.00;99043.81;5025693;28;19928;-90
2022/10/21 16:58:26;;;;;;;;;;;;;;;6.42;100.00;99041.91;5043370;28;20037;-89
2022/10/21 17:00:52;;;;;;;;;;;;;;;6.38;100.00;99045.56;5026043;28;20379;-90
2022/10/21 17:03:17;;;;;;;;;;;;;;;6.43;100.00;99055.91;5025728;28;19917;-92
2022/10/21 17:05:42;;;;;;;;;;;;;;;6.34;100.00;99052.72;5043656;28;19924;-90
2022/10/21 17:08:08;;;;;;;;;;;;;;;6.34;100.00;99050.09;5042297;28;20318;-90
2022/10/21 17:10:33;;;;;;;;;;;;;;;6.35;100.00;99043.91;5025143;28;19921;-89
2022/10/21 17:13:00;;;;;;;;;;;;;;;6.41;100.00;99045.44;5043140;28;19924;-90
2022/10/21 17:15:31;;;;;;;;;;;;;;;6.41;100.00;99052.50;5026092;28;19921;-94
2022/10/21 17:17:59;;;;;;;;;;;;;;;6.40;100.00;99061.28;5025597;28;20330;-91
2022/10/21 17:20:29;;;;;;;;;;;;;;;6.41;100.00;99055.13;5043478;28;19923;-91
2022/10/21 17:22:58;;;;;;;;;;;;;;;6.42;100.00;99064.75;5041812;28;19992;-91
2022/10/21 17:25:24;;;;;;;;;;;;;;;6.44;100.00;99055.00;5026005;28;19921;-89
2022/10/21 17:27:49;;;;;;;;;;;;;;;6.43;100.00;99048.00;5026178;28;20012;-88
2022/10/21 17:30:17;;;;;;;;;;;;;;;6.46;100.00;99040.00;5025812;28;19924;-88
2022/10/21 17:32:43;;;;;;;;;;;;;;;6.45;100.00;99046.22;5025141;28;20379;-91
2022/10/21 17:35:20;;;;;;;;;;;;;;;6.47;100.00;99045.22;5033082;28;19923;-90
2022/10/21 17:37:50;;;;;;;;;;;;;;;6.48;100.00;99054.00;5025462;28;19997;-89
2022/10/21 17:40:17;;;;;;;;;;;;;;;6.46;100.00;99058.44;5031479;28;19978;-88
2022/10/21 17:42:42;;;;;;;;;;;;;;;6.49;100.00;99058.31;5040265;28;19917;-87
2022/10/21 17:45:09;;;;;;;;;;;;;;;6.50;100.00;99046.88;5025026;28;20279;-87
2022/10/21 17:47:38;;;;;;;;;;;;;;;6.49;100.00;99048.66;5025009;28;20296;-90
2022/10/21 17:50:04;;;;;;;;;;;;;;;6.52;100.00;99043.25;5042894;28;19970;-90
2022/10/21 17:52:29;;;;;;;;;;;;;;;6.49;100.00;99053.06;5042819;28;19924;-90
2022/10/21 17:54:54;;;;;;;;;;;;;;;6.45;100.00;99056.72;5040847;28;19928;-87
2022/10/21 17:57:26;;;;;;;;;;;;;;;6.44;100.00;99057.63;5024704;28;20327;-93
2022/10/21 18:00:03;;;;;;;;;;;;;;;6.46;100.00;99048.78;5042471;28;19916;-88
2022/10/21 18:02:32;;;;;;;;;;;;;;;6.44;100.00;99055.00;5041825;28;20272;-87
2022/10/21 18:04:57;;;;;;;;;;;;;;;6.45;100.00;99052.31;5024016;28;19963;-88
2022/10/21 18:07:22;;;;;;;;;;;;;;;6.44;100.00;99063.75;5042684;28;19952;-90
2022/10/21 18:09:55;;;;;;;;;;;;;;;6.43;100.00;99069.94;5041140;28;19924;-90
2022/10/21 18:12:21;;;;;;;;;;;;;;;6.44;100.00;99060.28;5041986;28;20442;-88
2022/10/21 18:14:50;;;;;;;;;;;;;;;6.43;100.00;99055.91;5024613;28;19940;-92
2022/10/21 18:17:18;;;;;;;;;;;;;;;6.47;100.00;99054.91;5041122;28;19917;-89
2022/10/21 18:19:44;;;;;;;;;;;;;;;6.44;100.00;99055.84;5042014;28;20328;-87
2022/10/21 18:22:09;;;;;;;;;;;;;;;6.41;100.00;99057.75;5042205;28;19921;-90
2022/10/21 18:24:35;;;;;;;;;;;;;;;6.41;100.00;99055.13;5040380;28;19960;-88
2022/10/21 18:27:00;;;;;;;;;;;;;;;6.43;100.00;99051.53;5043047;28;19925;-88
2022/10/21 18:29:28;;;;;;;;;;;;;;;6.43;100.00;99058.53;5042925;22;20044;-91
2022/10/21 18:32:20;;;;;;;;;;;;;;;6.40;100.00;99056.91;4995072;28;19921;-93
2022/10/21 18:35:04;;;;;;;;;;;;;;;6.39;100.00;99063.06;4995128;28;20347;-91
2022/10/21 18:37:31;;;;;;;;;;;;;;;6.41;100.00;99066.50;5011767;28;19922;-90
2022/10/21 18:39:56;;;;;;;;;;;;;;;6.38;100.00;99074.50;4992415;28;19917;-92
2022/10/21 18:42:45;;;;;;;;;;;;;;;6.36;100.00;99065.81;5012608;28;20421;-90
2022/10/21 18:45:10;;;;;;;;;;;;;;;6.39;100.00;99060.44;5004653;28;20008;-91
2022/10/21 18:47:36;;;;;;;;;;;;;;;6.41;100.00;99066.50;4994392;28;20009;-90
2022/10/21 18:50:01;;;;;;;;;;;;;;;6.44;100.00;99065.53;4994835;28;20450;-89
2022/10/21 18:52:27;;;;;;;;;;;;;;;6.45;100.00;99060.22;4994750;28;19929;-90
2022/10/21 18:55:18;;;;;;;;;;;;;;;6.43;100.00;99063.81;4994099;28;20253;-93
2022/10/21 18:57:46;;;;;;;;;;;;;;;6.47;100.00;99062.78;4991493;28;19921;-89
2022/10/21 19:00:11;;;;;;;;;;;;;;;6.50;100.00;99060.88;4994954;28;19968;-92
2022/10/21 19:02:37;;;;;;;;;;;;;;;6.49;100.00;99053.94;4994611;28;19961;-91
2022/10/21 19:05:02;;;;;;;;;;;;;;;6.49;100.00;99045.16;5011932;28;19964;-90
2022/10/21 19:07:28;;;;;;;;;;;;;;;6.50;100.00;99041.63;5011971;28;19983;-89
2022/10/21 19:10:09;;;;;;;;;;;;;;;6.50;100.00;99045.09;5011275;28;19976;-90
2022/10/21 19:12:34;;;;;;;;;;;;;;;6.47;100.00;99045.22;5011952;28;19922;-90
2022/10/21 19:14:59;;;;;;;;;;;;;;;6.48;100.00;99046.09;5012230;28;20328;-90
2022/10/21 19:17:26;;;;;;;;;;;;;;;6.46;100.00;99045.28;4994104;28;19918;-90
2022/10/21 19:22:24;;;;;;;;;;;;;;;6.59;100.00;99051.81;5040382;28;19929;-91
2022/10/21 19:24:53;;;;;;;;;;;;;;;6.59;100.00;99048.28;5041411;28;19924;-90
2022/10/21 19:29:53;;;;;;;;;;;;;;;6.57;100.00;99047.50;5077940;23;19936;-91
2022/10/21 19:32:26;;;;;;;;;;;;;;;6.59;100.00;99037.75;5033799;28;19917;-91